createdAt,value
2023-01-18T00:01:06.685Z,94544.19
2023-01-18T00:03:33.820Z,94551.09
2023-01-18T00:06:01.700Z,94545.25
2023-01-18T00:08:29.559Z,94548.44
2023-01-18T00:11:09.023Z,94543.97
2023-01-18T00:13:35.945Z,94552.97
2023-01-18T00:16:06.606Z,94557.75
2023-01-18T00:18:35.954Z,94554.31
2023-01-18T00:21:03.662Z,94558.50
2023-01-18T00:23:30.262Z,94555.28
2023-01-18T00:26:03.932Z,94546.94
2023-01-18T00:28:30.585Z,94543.19
2023-01-18T00:30:57.227Z,94543.81
2023-01-18T00:33:23.861Z,94551.38
2023-01-18T00:36:01.339Z,94541.97
2023-01-18T00:38:28.429Z,94545.41
2023-01-18T00:40:55.124Z,94555.66
2023-01-18T00:43:40.279Z,94550.56
2023-01-18T00:46:11.788Z,94552.53
2023-01-18T00:48:41.376Z,94564.47
2023-01-18T00:51:09.166Z,94560.44
2023-01-18T00:53:35.964Z,94561.94
2023-01-18T00:56:02.616Z,94567.47
2023-01-18T00:58:29.227Z,94576.38
2023-01-18T01:00:55.905Z,94574.69
2023-01-18T01:03:22.612Z,94582.78
2023-01-18T01:06:07.963Z,94574.53
2023-01-18T01:08:34.846Z,94579.31
2023-01-18T01:11:06.700Z,94578.75
2023-01-18T01:13:51.770Z,94572.88
2023-01-18T01:16:37.188Z,94564.13
2023-01-18T01:19:22.136Z,94551.44
2023-01-18T01:22:07.152Z,94550.22
2023-01-18T01:24:52.102Z,94547.38
2023-01-18T01:27:18.707Z,94553.41
2023-01-18T01:29:45.392Z,94557.69
2023-01-18T01:32:12.074Z,94553.31
2023-01-18T01:34:38.696Z,94565.06
2023-01-18T01:37:05.608Z,94559.66
2023-01-18T01:39:32.196Z,94566.59
2023-01-18T01:41:58.849Z,94559.28
2023-01-18T01:44:28.103Z,94560.44
2023-01-18T01:47:00.145Z,94558.59
2023-01-18T01:49:32.295Z,94552.22
2023-01-18T01:52:02.551Z,94555.25
2023-01-18T01:54:38.220Z,94553.72
2023-01-18T01:57:07.303Z,94557.13
2023-01-18T01:59:34.565Z,94562.78
2023-01-18T02:02:01.290Z,94567.34
2023-01-18T02:04:27.974Z,94563.47
2023-01-18T02:06:54.583Z,94563.66
2023-01-18T02:09:23.291Z,94561.31
2023-01-18T02:11:53.565Z,94554.63
2023-01-18T02:14:20.614Z,94553.22
2023-01-18T02:16:59.334Z,94550.91
2023-01-18T02:19:46.146Z,94560.31
2023-01-18T02:22:46.313Z,94562.03
2023-01-18T02:25:57.765Z,94559.91
2023-01-18T02:28:26.326Z,94559.47
2023-01-18T02:31:50.434Z,94559.47
2023-01-18T02:34:34.436Z,94560.44
2023-01-18T02:37:26.275Z,94553.97
2023-01-18T02:40:20.687Z,94553.69
2023-01-18T02:43:05.623Z,94556.28
2023-01-18T02:45:59.296Z,94562.41
2023-01-18T02:48:25.953Z,94553.88
2023-01-18T02:50:52.554Z,94548.81
2023-01-18T02:53:19.142Z,94548.00
2023-01-18T02:55:53.490Z,94552.75
2023-01-18T02:58:26.335Z,94560.69
2023-01-18T03:01:06.158Z,94554.41
2023-01-18T03:03:32.789Z,94542.63
2023-01-18T03:06:01.651Z,94549.63
2023-01-18T03:08:38.839Z,94547.41
2023-01-18T03:11:34.253Z,94543.63
2023-01-18T03:14:12.709Z,94543.31
2023-01-18T03:17:02.042Z,94536.78
2023-01-18T03:20:01.012Z,94541.72
2023-01-18T03:22:48.232Z,94532.03
2023-01-18T03:25:17.972Z,94532.34
2023-01-18T03:28:03.176Z,94533.88
2023-01-18T03:30:48.494Z,94550.53
2023-01-18T03:33:34.640Z,94538.53
2023-01-18T03:36:01.252Z,94545.41
2023-01-18T03:38:27.816Z,94549.09
2023-01-18T03:40:54.475Z,94551.69
2023-01-18T03:43:21.064Z,94555.13
2023-01-18T03:45:50.625Z,94550.47
2023-01-18T03:48:17.219Z,94552.53
2023-01-18T03:50:51.893Z,94555.84
2023-01-18T03:53:46.003Z,94554.47
2023-01-18T03:56:28.495Z,94562.66
2023-01-18T03:58:56.488Z,94571.13
2023-01-18T04:01:23.239Z,94570.69
2023-01-18T04:03:49.915Z,94573.31
2023-01-18T04:06:17.235Z,94576.81
2023-01-18T04:08:43.862Z,94588.88
2023-01-18T04:11:10.493Z,94591.16
2023-01-18T04:13:37.075Z,94595.41
2023-01-18T04:16:04.806Z,94591.41
2023-01-18T04:18:31.580Z,94584.00
2023-01-18T04:20:58.260Z,94581.47
2023-01-18T04:23:24.917Z,94580.44
2023-01-18T04:25:51.656Z,94581.94
2023-01-18T04:28:25.286Z,94594.94
2023-01-18T04:30:52.760Z,94603.03
2023-01-18T04:33:20.716Z,94597.06
2023-01-18T04:35:48.062Z,94599.28
2023-01-18T04:38:15.076Z,94595.50
2023-01-18T04:40:41.766Z,94585.78
2023-01-18T04:43:08.374Z,94581.53
2023-01-18T04:45:34.989Z,94576.38
2023-01-18T04:48:01.574Z,94577.31
2023-01-18T04:50:28.209Z,94578.47
2023-01-18T04:52:54.786Z,94568.91
2023-01-18T04:55:21.414Z,94561.41
2023-01-18T04:57:57.573Z,94558.66
2023-01-18T05:00:24.304Z,94564.72
2023-01-18T05:02:51.073Z,94569.44
2023-01-18T05:05:17.720Z,94584.59
2023-01-18T05:07:44.341Z,94588.09
2023-01-18T05:10:11.330Z,94578.88
2023-01-18T05:12:37.910Z,94586.63
2023-01-18T05:15:05.899Z,94592.28
2023-01-18T05:17:34.616Z,94592.66
2023-01-18T05:20:02.106Z,94592.94
2023-01-18T05:22:29.238Z,94597.41
2023-01-18T05:24:55.993Z,94601.94
2023-01-18T05:27:22.618Z,94602.84
2023-01-18T05:29:49.222Z,94607.31
2023-01-18T05:32:15.912Z,94611.31
2023-01-18T05:34:42.526Z,94617.56
2023-01-18T05:37:09.185Z,94621.94
2023-01-18T05:39:35.775Z,94618.59
2023-01-18T05:42:02.429Z,94620.47
2023-01-18T05:44:29.035Z,94617.06
2023-01-18T05:46:55.883Z,94620.03
2023-01-18T05:49:22.966Z,94623.75
2023-01-18T05:51:49.615Z,94632.56
2023-01-18T05:54:16.236Z,94640.59
2023-01-18T05:56:42.896Z,94638.88
2023-01-18T05:59:09.502Z,94640.88
2023-01-18T06:01:36.189Z,94652.63
2023-01-18T06:04:02.845Z,94655.56
2023-01-18T06:06:29.492Z,94656.13
2023-01-18T06:08:56.140Z,94658.03
2023-01-18T06:11:22.797Z,94661.88
2023-01-18T06:13:49.405Z,94652.03
2023-01-18T06:16:16.026Z,94649.38
2023-01-18T06:18:42.687Z,94650.94
2023-01-18T06:21:10.851Z,94655.00
2023-01-18T06:23:37.503Z,94651.72
2023-01-18T06:26:04.339Z,94652.88
2023-01-18T06:28:31.068Z,94648.06
2023-01-18T06:30:57.742Z,94652.56
2023-01-18T06:33:24.531Z,94654.78
2023-01-18T06:35:51.255Z,94653.44
2023-01-18T06:38:17.844Z,94653.75
2023-01-18T06:40:44.591Z,94667.34
2023-01-18T06:43:14.071Z,94666.63
2023-01-18T06:45:41.323Z,94667.03
2023-01-18T06:48:08.014Z,94664.44
2023-01-18T06:50:34.617Z,94674.06
2023-01-18T06:53:01.452Z,94658.63
2023-01-18T06:55:28.171Z,94650.00
2023-01-18T06:57:56.175Z,94648.28
2023-01-18T07:00:23.615Z,94655.03
2023-01-18T07:02:51.931Z,94666.19
2023-01-18T07:05:18.560Z,94682.09
2023-01-18T07:07:46.299Z,94696.03
2023-01-18T07:10:14.786Z,94699.03
2023-01-18T07:12:43.259Z,94719.03
2023-01-18T07:15:21.052Z,94727.00
2023-01-18T07:17:50.447Z,94737.78
2023-01-18T07:20:17.396Z,94738.00
2023-01-18T07:22:44.009Z,94733.69
2023-01-18T07:25:13.797Z,94737.34
2023-01-18T07:27:43.229Z,94745.00
2023-01-18T07:30:12.420Z,94758.91
2023-01-18T07:32:39.400Z,94765.50
2023-01-18T07:35:06.171Z,94775.13
2023-01-18T07:37:33.955Z,94776.38
2023-01-18T07:40:00.525Z,94786.09
2023-01-18T07:42:27.135Z,94794.41
2023-01-18T07:44:53.720Z,94804.97
2023-01-18T07:47:20.400Z,94805.78
2023-01-18T07:49:46.995Z,94813.03
2023-01-18T07:52:13.683Z,94832.19
2023-01-18T07:54:40.274Z,94827.66
2023-01-18T07:57:06.905Z,94841.09
2023-01-18T07:59:33.799Z,94848.09
2023-01-18T08:02:00.462Z,94858.59
2023-01-18T08:04:27.096Z,94877.09
2023-01-18T08:06:53.763Z,94874.03
2023-01-18T08:09:20.346Z,94882.66
2023-01-18T08:11:46.949Z,94898.31
2023-01-18T08:14:13.549Z,94902.69
2023-01-18T08:16:40.196Z,94900.84
2023-01-18T08:19:06.784Z,94916.03
2023-01-18T08:21:33.644Z,94925.69
2023-01-18T08:24:00.305Z,94932.75
2023-01-18T08:26:26.928Z,94929.50
2023-01-18T08:28:53.507Z,94954.63
2023-01-18T08:31:21.289Z,94963.81
2023-01-18T08:33:48.775Z,94967.59
2023-01-18T08:36:17.357Z,94981.59
2023-01-18T08:38:46.899Z,94978.84
2023-01-18T08:41:13.495Z,94985.38
2023-01-18T08:43:40.093Z,94989.41
2023-01-18T08:46:06.745Z,95002.97
2023-01-18T08:48:33.349Z,95002.03
2023-01-18T08:51:01.254Z,95022.66
2023-01-18T08:53:28.959Z,95024.34
2023-01-18T08:55:55.578Z,95046.97
2023-01-18T08:58:22.216Z,95052.47
2023-01-18T09:00:53.494Z,95054.72
2023-01-18T09:03:21.327Z,95070.84
2023-01-18T09:05:48.114Z,95074.53
2023-01-18T09:08:14.775Z,95086.63
2023-01-18T09:10:41.407Z,95089.34
2023-01-18T09:13:08.308Z,95104.09
2023-01-18T09:15:35.280Z,95119.19
2023-01-18T09:18:06.386Z,95130.88
2023-01-18T09:20:36.022Z,95135.81
2023-01-18T09:23:06.590Z,95144.16
2023-01-18T09:25:33.373Z,95154.41
2023-01-18T09:28:01.403Z,95153.41
2023-01-18T09:30:28.023Z,95168.09
2023-01-18T09:32:54.657Z,95160.19
2023-01-18T09:35:21.324Z,95157.13
2023-01-18T09:37:47.940Z,95173.16
2023-01-18T09:40:21.265Z,95183.72
2023-01-18T09:42:51.485Z,95180.88
2023-01-18T09:45:29.904Z,95189.69
2023-01-18T09:48:02.354Z,95189.69
2023-01-18T09:50:28.965Z,95204.63
2023-01-18T09:53:23.533Z,95199.69
2023-01-18T09:55:54.266Z,95201.13
2023-01-18T09:58:47.884Z,95189.38
2023-01-18T10:01:17.108Z,95214.78
2023-01-18T10:04:13.052Z,95223.91
2023-01-18T10:07:00.331Z,95235.00
2023-01-18T10:09:40.683Z,95245.63
2023-01-18T10:12:27.108Z,95245.25
2023-01-18T10:15:17.675Z,95250.47
2023-01-18T10:17:44.604Z,95256.50
2023-01-18T10:20:29.695Z,95282.44
2023-01-18T10:22:59.130Z,95285.09
2023-01-18T10:25:37.618Z,95276.66
2023-01-18T10:28:26.524Z,95267.31
2023-01-18T10:30:58.255Z,95277.09
2023-01-18T10:33:29.314Z,95284.75
2023-01-18T10:35:58.416Z,95289.88
2023-01-18T10:38:26.090Z,95290.22
2023-01-18T10:41:00.287Z,95277.63
2023-01-18T10:43:27.950Z,95267.53
2023-01-18T10:45:54.973Z,95276.50
2023-01-18T10:48:45.182Z,95281.75
2023-01-18T10:51:23.525Z,95279.31
2023-01-18T10:53:50.299Z,95277.69
2023-01-18T10:56:17.791Z,95292.25
2023-01-18T10:58:46.474Z,95300.56
2023-01-18T11:01:17.890Z,95294.78
2023-01-18T11:03:55.364Z,95310.22
2023-01-18T11:06:21.999Z,95315.69
2023-01-18T11:08:49.310Z,95318.44
2023-01-18T11:11:50.196Z,95321.53
2023-01-18T11:14:28.734Z,95327.84
2023-01-18T11:16:59.867Z,95344.09
2023-01-18T11:19:26.526Z,95347.03
2023-01-18T11:21:53.869Z,95364.06
2023-01-18T11:24:28.313Z,95368.53
2023-01-18T11:27:02.185Z,95371.56
2023-01-18T11:29:42.745Z,95372.81
2023-01-18T11:32:24.364Z,95370.09
2023-01-18T11:34:55.353Z,95381.94
2023-01-18T11:37:35.743Z,95382.22
2023-01-18T11:40:29.782Z,95391.00
2023-01-18T11:43:14.537Z,95383.41
2023-01-18T11:45:46.402Z,95378.09
2023-01-18T11:48:24.137Z,95383.28
2023-01-18T11:51:07.348Z,95388.56
2023-01-18T11:53:58.129Z,95390.72
2023-01-18T11:56:40.898Z,95398.97
2023-01-18T11:59:33.660Z,95428.59
2023-01-18T12:02:21.697Z,95425.59
2023-01-18T12:04:54.241Z,95437.50
2023-01-18T12:07:35.911Z,95438.72
2023-01-18T12:10:03.046Z,95447.41
2023-01-18T12:13:05.291Z,95453.91
2023-01-18T12:15:52.320Z,95446.81
2023-01-18T12:18:24.873Z,95460.19
2023-01-18T12:21:03.843Z,95481.00
2023-01-18T12:23:47.187Z,95485.03
2023-01-18T12:26:32.477Z,95490.91
2023-01-18T12:29:34.089Z,95489.59
2023-01-18T12:32:03.324Z,95500.91
2023-01-18T12:34:50.028Z,95508.47
2023-01-18T12:37:26.355Z,95504.47
2023-01-18T12:40:31.627Z,95504.47
2023-01-18T12:43:10.192Z,95510.91
2023-01-18T12:46:07.110Z,95516.59
2023-01-18T12:48:51.832Z,95520.97
2023-01-18T12:51:20.455Z,95521.59
2023-01-18T12:53:58.658Z,95524.38
2023-01-18T12:56:38.498Z,95536.78
2023-01-18T12:59:07.786Z,95538.09
2023-01-18T13:01:40.048Z,95552.31
2023-01-18T13:04:12.995Z,95562.00
2023-01-18T13:06:39.647Z,95553.94
2023-01-18T13:09:09.942Z,95555.41
2023-01-18T13:11:38.046Z,95560.75
2023-01-18T13:14:13.626Z,95565.44
2023-01-18T13:17:06.272Z,95573.84
2023-01-18T13:19:43.458Z,95574.97
2023-01-18T13:22:13.956Z,95580.31
2023-01-18T13:24:47.258Z,95585.47
2023-01-18T13:27:15.563Z,95586.28
2023-01-18T13:29:42.319Z,95602.75
2023-01-18T13:32:29.711Z,95609.09
2023-01-18T13:35:19.682Z,95612.81
2023-01-18T13:37:50.560Z,95633.66
2023-01-18T13:40:25.640Z,95630.59
2023-01-18T13:42:52.260Z,95646.63
2023-01-18T13:45:23.097Z,95655.50
2023-01-18T13:48:14.838Z,95651.91
2023-01-18T13:50:42.318Z,95661.16
2023-01-18T13:53:14.498Z,95670.53
2023-01-18T13:55:48.682Z,95674.25
2023-01-18T13:58:26.494Z,95668.38
2023-01-18T14:00:54.132Z,95687.47
2023-01-18T14:03:25.255Z,95684.84
2023-01-18T14:05:52.628Z,95690.81
2023-01-18T14:08:20.931Z,95712.00
2023-01-18T14:10:53.194Z,95726.34
2023-01-18T14:13:45.301Z,95741.25
2023-01-18T14:16:16.965Z,95752.56
2023-01-18T14:18:57.749Z,95761.16
2023-01-18T14:21:26.976Z,95767.66
2023-01-18T14:24:08.589Z,95770.38
2023-01-18T14:26:36.095Z,95782.66
2023-01-18T14:29:06.452Z,95783.28
2023-01-18T14:31:34.762Z,95797.13
2023-01-18T14:34:30.650Z,95807.47
2023-01-18T14:36:57.678Z,95813.25
2023-01-18T14:39:24.297Z,95813.84
2023-01-18T14:41:55.449Z,95822.53
2023-01-18T14:44:24.262Z,95832.22
2023-01-18T14:46:52.375Z,95839.00
2023-01-18T14:49:24.069Z,95837.03
2023-01-18T14:51:51.024Z,95841.97
2023-01-18T14:54:17.715Z,95840.81
2023-01-18T14:56:45.249Z,95841.75
2023-01-18T14:59:24.281Z,95847.41
2023-01-18T15:02:18.972Z,95852.94
2023-01-18T15:04:47.425Z,95859.84
2023-01-18T15:07:17.493Z,95864.41
2023-01-18T15:09:44.577Z,95871.19
2023-01-18T15:12:17.300Z,95882.53
2023-01-18T15:14:45.280Z,95897.78
2023-01-18T15:17:21.466Z,95897.41
2023-01-18T15:19:59.697Z,95896.63
2023-01-18T15:22:34.286Z,95899.75
2023-01-18T15:25:01.237Z,95917.13
2023-01-18T15:27:34.103Z,95921.31
2023-01-18T15:30:01.310Z,95923.84
2023-01-18T15:32:30.016Z,95935.81
2023-01-18T15:34:56.906Z,95943.13
2023-01-18T15:37:25.381Z,95944.63
2023-01-18T15:39:58.883Z,95954.66
2023-01-18T15:42:38.642Z,95967.78
2023-01-18T15:45:06.927Z,95969.56
2023-01-18T15:47:36.729Z,95976.72
2023-01-18T15:50:05.360Z,95965.00
2023-01-18T15:52:43.943Z,95978.78
2023-01-18T15:55:32.558Z,95969.53
2023-01-18T15:58:05.639Z,95974.16
2023-01-18T16:00:56.541Z,95983.28
2023-01-18T16:03:28.564Z,95994.66
2023-01-18T16:06:06.943Z,96003.22
2023-01-18T16:08:35.435Z,96012.53
2023-01-18T16:11:02.080Z,96005.19
2023-01-18T16:13:32.530Z,96009.63
2023-01-18T16:16:15.445Z,96007.19
2023-01-18T16:18:47.748Z,96009.94
2023-01-18T16:21:40.462Z,96028.53
2023-01-18T16:24:19.983Z,96028.91
2023-01-18T16:26:46.881Z,96040.88
2023-01-18T16:29:13.551Z,96050.25
2023-01-18T16:31:42.548Z,96059.28
2023-01-18T16:34:23.852Z,96057.28
2023-01-18T16:36:51.463Z,96058.53
2023-01-18T16:39:18.833Z,96063.47
2023-01-18T16:41:51.435Z,96074.84
2023-01-18T16:44:18.082Z,96079.66
2023-01-18T16:46:45.599Z,96093.28
2023-01-18T16:49:13.214Z,96107.88
2023-01-18T16:51:40.714Z,96113.56
2023-01-18T16:54:07.343Z,96115.06
2023-01-18T16:56:33.981Z,96110.78
2023-01-18T16:59:02.985Z,96112.91
2023-01-18T17:01:30.840Z,96119.19
2023-01-18T17:03:57.588Z,96119.50
2023-01-18T17:06:24.265Z,96125.53
2023-01-18T17:08:50.979Z,96126.22
2023-01-18T17:11:17.702Z,96130.69
2023-01-18T17:13:45.020Z,96140.22
2023-01-18T17:16:16.904Z,96139.78
2023-01-18T17:18:43.699Z,96136.75
2023-01-18T17:21:10.840Z,96143.13
2023-01-18T17:23:39.951Z,96157.09
2023-01-18T17:26:13.219Z,96155.81
2023-01-18T17:28:39.825Z,96155.59
2023-01-18T17:31:06.564Z,96174.69
2023-01-18T17:33:36.026Z,96179.34
2023-01-18T17:40:57.785Z,96200.97
2023-01-18T17:43:39.559Z,96201.16
2023-01-18T17:46:06.582Z,96220.16
2023-01-18T17:48:33.457Z,96208.94
2023-01-18T17:51:00.122Z,96212.63
2023-01-18T17:53:26.807Z,96228.88
2023-01-18T17:55:53.450Z,96248.50
2023-01-18T17:58:20.139Z,96241.28
2023-01-18T18:00:47.168Z,96232.59
2023-01-18T18:03:13.968Z,96231.50
2023-01-18T18:05:40.662Z,96230.75
2023-01-18T18:08:07.670Z,96225.91
2023-01-18T18:10:34.357Z,96224.81
2023-01-18T18:13:01.559Z,96231.13
2023-01-18T18:15:28.482Z,96243.19
2023-01-18T18:17:55.190Z,96247.50
2023-01-18T18:20:23.015Z,96248.34
2023-01-18T18:22:49.789Z,96251.78
2023-01-18T18:25:16.388Z,96245.41
2023-01-18T18:27:47.195Z,96250.69
2023-01-18T18:30:14.938Z,96241.44
2023-01-18T18:32:41.625Z,96242.03
2023-01-18T18:35:23.904Z,96236.78
2023-01-18T18:37:51.813Z,96237.66
2023-01-18T18:40:19.305Z,96224.94
2023-01-18T18:42:56.418Z,96233.34
2023-01-18T18:45:27.288Z,96235.16
2023-01-18T18:47:53.901Z,96240.25
2023-01-18T18:50:20.518Z,96224.19
2023-01-18T18:52:47.206Z,96224.41
2023-01-18T18:55:13.897Z,96216.00
2023-01-18T18:57:40.628Z,96205.56
2023-01-18T19:00:07.916Z,96218.00
2023-01-18T19:02:34.947Z,96209.53
2023-01-18T19:05:01.634Z,96211.00
2023-01-18T19:07:28.353Z,96215.91
2023-01-18T19:09:55.036Z,96210.97
2023-01-18T19:12:22.007Z,96212.28
2023-01-18T19:14:49.037Z,96216.97
2023-01-18T19:17:25.225Z,96208.22
2023-01-18T19:19:55.760Z,96194.94
2023-01-18T19:22:22.403Z,96194.88
2023-01-18T19:24:49.410Z,96203.81
2023-01-18T19:27:16.584Z,96199.41
2023-01-18T19:29:43.353Z,96195.78
2023-01-18T19:32:10.321Z,96194.53
2023-01-18T19:34:38.566Z,96192.59
2023-01-18T19:37:05.592Z,96190.19
2023-01-18T19:39:34.746Z,96190.66
2023-01-18T19:42:02.114Z,96185.59
2023-01-18T19:44:28.922Z,96186.09
2023-01-18T19:46:57.050Z,96186.63
2023-01-18T19:49:25.724Z,96187.72
2023-01-18T19:51:53.118Z,96176.09
2023-01-18T19:54:19.733Z,96170.31
2023-01-18T19:56:46.546Z,96168.56
2023-01-18T19:59:14.713Z,96179.44
2023-01-18T20:01:41.634Z,96164.19
2023-01-18T20:04:08.431Z,96157.09
2023-01-18T20:06:35.301Z,96165.00
2023-01-18T20:09:02.798Z,96147.72
2023-01-18T20:11:30.670Z,96141.69
2023-01-18T20:13:57.345Z,96135.50
2023-01-18T20:16:24.599Z,96118.03
2023-01-18T20:18:51.424Z,96116.03
2023-01-18T20:21:19.198Z,96119.09
2023-01-18T20:23:45.848Z,96112.84
2023-01-18T20:26:13.267Z,96095.75
2023-01-18T20:28:41.107Z,96100.44
2023-01-18T20:31:09.291Z,96092.03
2023-01-18T20:33:38.081Z,96084.59
2023-01-18T20:36:06.487Z,96083.09
2023-01-18T20:38:33.746Z,96086.09
2023-01-18T20:41:01.002Z,96088.75
2023-01-18T20:43:27.607Z,96097.47
2023-01-18T20:46:01.156Z,96089.81
2023-01-18T20:48:27.897Z,96089.53
2023-01-18T20:50:54.576Z,96094.34
2023-01-18T20:53:21.185Z,96088.44
2023-01-18T20:55:47.815Z,96093.84
2023-01-18T20:58:14.470Z,96090.97
2023-01-18T21:00:41.151Z,96084.28
2023-01-18T21:03:07.816Z,96077.78
2023-01-18T21:05:34.488Z,96064.09
2023-01-18T21:08:01.558Z,96051.03
2023-01-18T21:10:38.635Z,96040.59
2023-01-18T21:13:09.113Z,96044.09
2023-01-18T21:15:36.364Z,96036.03
2023-01-18T21:18:04.186Z,96029.66
2023-01-18T21:20:31.322Z,96033.06
2023-01-18T21:22:58.193Z,96037.03
2023-01-18T21:25:26.102Z,96027.88
2023-01-18T21:27:52.836Z,96020.97
2023-01-18T21:30:19.761Z,96011.56
2023-01-18T21:32:46.992Z,96002.81
2023-01-18T21:35:13.635Z,96000.66
2023-01-18T21:37:40.508Z,95996.28
2023-01-18T21:40:07.881Z,95987.97
2023-01-18T21:42:53.124Z,95990.56
2023-01-18T21:45:38.207Z,96000.47
2023-01-18T21:48:08.752Z,95994.94
2023-01-18T21:50:57.478Z,96006.56
2023-01-18T21:53:43.092Z,96001.59
2023-01-18T21:56:09.784Z,96004.66
2023-01-18T21:58:54.745Z,96001.22
2023-01-18T22:01:26.709Z,96004.50
2023-01-18T22:04:12.875Z,96003.69
2023-01-18T22:06:39.626Z,96001.78
2023-01-18T22:09:06.518Z,96003.31
2023-01-18T22:11:33.156Z,95992.00
2023-01-18T22:13:59.837Z,95986.94
2023-01-18T22:16:30.483Z,95983.09
2023-01-18T22:18:58.346Z,95984.63
2023-01-18T22:21:25.468Z,95995.88
2023-01-18T22:23:52.687Z,95996.09
2023-01-18T22:26:20.378Z,95995.59
2023-01-18T22:28:47.035Z,95994.25
2023-01-18T22:31:13.915Z,95999.41
2023-01-18T22:33:40.844Z,95997.84
2023-01-18T22:36:07.806Z,95997.94
2023-01-18T22:38:34.473Z,96005.63
2023-01-18T22:41:02.621Z,96007.97
2023-01-18T22:43:31.083Z,96009.31
2023-01-18T22:45:57.803Z,96020.81
2023-01-18T22:48:24.853Z,96021.25
2023-01-18T22:50:55.175Z,96012.88
2023-01-18T22:53:21.946Z,96009.03
2023-01-18T22:55:48.767Z,96005.53
2023-01-18T22:58:15.466Z,96003.22
2023-01-18T23:00:43.255Z,96001.34
2023-01-18T23:03:09.850Z,96001.69
2023-01-18T23:05:36.486Z,96014.06
2023-01-18T23:08:04.361Z,96004.94
2023-01-18T23:10:31.361Z,96010.69
2023-01-18T23:12:58.084Z,96014.41
2023-01-18T23:15:43.153Z,96017.50
2023-01-18T23:18:09.775Z,96022.09
2023-01-18T23:20:36.642Z,96022.69
2023-01-18T23:23:03.895Z,96018.72
2023-01-18T23:25:32.188Z,96020.72
2023-01-18T23:28:03.258Z,96025.03
2023-01-18T23:30:30.822Z,96016.59
2023-01-18T23:32:57.440Z,96023.34
2023-01-18T23:35:24.054Z,96026.66
2023-01-18T23:37:50.658Z,96037.47
2023-01-18T23:40:36.110Z,96039.34
2023-01-18T23:43:21.295Z,96038.50
2023-01-18T23:46:06.604Z,96054.25
2023-01-18T23:48:51.640Z,96047.34
2023-01-18T23:51:36.561Z,96049.38
2023-01-18T23:54:18.591Z,96054.72
2023-01-18T23:56:45.821Z,96053.34
2023-01-18T23:59:12.507Z,96062.50
